Pagrindinis puslapis
METAR-TAF:

METAR-TAF

Oro uostai :

Marianna Municipal Airport

Marianna, Florida, Jungtinės Amerikos Valstijos

platuma: 30-50-12N, ilguma: 085-11-01W, Aukštis: 34 m

Dabartinis oras

Ataskaita buvo paskelbta 35 minutes, ne 10:53 UTC
Ramus vėjas
Temperatūra 21°C
Drėgmė 88%
Slėgis 1016 hPa
Matomumas: 16.1 km
Giedras dangus

METAR: KMAI 311053Z AUTO 00000KT 10SM CLR 21/19 A3001 RMK AO2 SLP160 T02110194 $

Laikas: 06:28 (11:28 UTC)


TAF: trūkstamas

Orai ataskaitas ir orų prognozės (METAR, TAF).

turimą stotys yra geltonos ir raudonos taškus žemėlapyje.

Perkelti pele per norėdami pamatyti stoties vardą.

Tada spustelėkite, norėdami matyti oro stebėjimo ir prognozės.

Norėdami pakeisti žemėlapį: spustelėkite ant žalios mygtukų su juodo kryžiaus žemyn,; žalią mygtuką su brūkšneliu, jei norite nutolinti; arba žalių rodyklių gretimoms žemėlapius.


METAR-TAF: